sensor_id;sensor_type;location;lat;lon;timestamp;temperature;humidity
4090;DHT22;2059;48.538;12.146;2023-02-07T00:02:13;-1.30;96.90
4090;DHT22;2059;48.538;12.146;2023-02-07T00:07:14;-1.30;96.90
4090;DHT22;2059;48.538;12.146;2023-02-07T00:12:16;-1.30;96.80
4090;DHT22;2059;48.538;12.146;2023-02-07T00:17:19;-1.40;96.70
4090;DHT22;2059;48.538;12.146;2023-02-07T00:22:21;-1.30;96.60
4090;DHT22;2059;48.538;12.146;2023-02-07T00:27:23;-1.40;96.40
4090;DHT22;2059;48.538;12.146;2023-02-07T00:32:29;-1.30;96.40
4090;DHT22;2059;48.538;12.146;2023-02-07T00:37:31;-1.30;96.40
4090;DHT22;2059;48.538;12.146;2023-02-07T00:42:33;-1.30;96.30
4090;DHT22;2059;48.538;12.146;2023-02-07T00:47:36;-1.50;96.40
4090;DHT22;2059;48.538;12.146;2023-02-07T00:52:38;-1.40;96.30
4090;DHT22;2059;48.538;12.146;2023-02-07T00:57:40;-1.60;96.40
4090;DHT22;2059;48.538;12.146;2023-02-07T01:02:43;-1.80;96.70
4090;DHT22;2059;48.538;12.146;2023-02-07T01:07:45;-1.90;97.00
4090;DHT22;2059;48.538;12.146;2023-02-07T01:12:46;-1.90;96.90
4090;DHT22;2059;48.538;12.146;2023-02-07T01:17:50;-1.90;97.00
4090;DHT22;2059;48.538;12.146;2023-02-07T01:22:52;-2.00;96.80
4090;DHT22;2059;48.538;12.146;2023-02-07T01:27:54;-2.00;96.70
4090;DHT22;2059;48.538;12.146;2023-02-07T01:32:57;-2.20;96.70
4090;DHT22;2059;48.538;12.146;2023-02-07T01:37:59;-2.30;96.90
4090;DHT22;2059;48.538;12.146;2023-02-07T01:43:02;-2.00;96.60
4090;DHT22;2059;48.538;12.146;2023-02-07T01:48:07;-1.90;95.90
4090;DHT22;2059;48.538;12.146;2023-02-07T01:53:12;-1.90;95.70
4090;DHT22;2059;48.538;12.146;2023-02-07T01:58:16;-2.00;96.00
4090;DHT22;2059;48.538;12.146;2023-02-07T02:03:19;-2.30;96.30
4090;DHT22;2059;48.538;12.146;2023-02-07T02:08:21;-2.20;96.10
4090;DHT22;2059;48.538;12.146;2023-02-07T02:13:29;-2.30;96.40
4090;DHT22;2059;48.538;12.146;2023-02-07T02:18:51;-2.40;96.80
4090;DHT22;2059;48.538;12.146;2023-02-07T02:35:29;-2.40;96.20
4090;DHT22;2059;48.538;12.146;2023-02-07T02:40:39;-2.20;95.10
4090;DHT22;2059;48.538;12.146;2023-02-07T02:45:45;-2.00;94.60
4090;DHT22;2059;48.538;12.146;2023-02-07T02:50:48;-2.00;94.50
4090;DHT22;2059;48.538;12.146;2023-02-07T02:56:08;-2.00;94.10
4090;DHT22;2059;48.538;12.146;2023-02-07T03:01:17;-2.30;94.30
4090;DHT22;2059;48.538;12.146;2023-02-07T03:06:32;-2.20;94.30
4090;DHT22;2059;48.538;12.146;2023-02-07T03:11:40;-2.10;94.30
4090;DHT22;2059;48.538;12.146;2023-02-07T03:16:49;-2.00;94.00
4090;DHT22;2059;48.538;12.146;2023-02-07T03:21:59;-1.90;93.90
4090;DHT22;2059;48.538;12.146;2023-02-07T03:27:05;-2.00;94.10
4090;DHT22;2059;48.538;12.146;2023-02-07T03:32:08;-2.10;93.70
4090;DHT22;2059;48.538;12.146;2023-02-07T03:37:16;-2.20;94.20
4090;DHT22;2059;48.538;12.146;2023-02-07T03:42:31;-2.10;94.40
4090;DHT22;2059;48.538;12.146;2023-02-07T03:47:35;-2.00;94.10
4090;DHT22;2059;48.538;12.146;2023-02-07T03:52:38;-2.00;94.00
4090;DHT22;2059;48.538;12.146;2023-02-07T03:57:40;-2.30;94.40
4090;DHT22;2059;48.538;12.146;2023-02-07T04:02:41;-2.00;94.20
4090;DHT22;2059;48.538;12.146;2023-02-07T04:07:45;-2.00;94.10
4090;DHT22;2059;48.538;12.146;2023-02-07T04:12:47;-2.20;94.10
4090;DHT22;2059;48.538;12.146;2023-02-07T04:17:49;-2.00;94.10
4090;DHT22;2059;48.538;12.146;2023-02-07T04:22:52;-2.10;94.00
4090;DHT22;2059;48.538;12.146;2023-02-07T04:27:54;-2.00;93.90
4090;DHT22;2059;48.538;12.146;2023-02-07T04:32:56;-2.30;94.30
4090;DHT22;2059;48.538;12.146;2023-02-07T04:37:59;-2.20;94.30
4090;DHT22;2059;48.538;12.146;2023-02-07T04:43:01;-2.10;94.20
4090;DHT22;2059;48.538;12.146;2023-02-07T04:48:03;-2.00;94.00
4090;DHT22;2059;48.538;12.146;2023-02-07T04:53:06;-1.90;93.60
4090;DHT22;2059;48.538;12.146;2023-02-07T04:58:08;-1.80;93.40
4090;DHT22;2059;48.538;12.146;2023-02-07T05:03:10;-2.20;93.90
4090;DHT22;2059;48.538;12.146;2023-02-07T05:08:13;-2.20;94.20
4090;DHT22;2059;48.538;12.146;2023-02-07T05:13:15;-2.00;93.90
4090;DHT22;2059;48.538;12.146;2023-02-07T05:18:17;-2.40;94.20
4090;DHT22;2059;48.538;12.146;2023-02-07T05:23:20;-2.30;94.20
4090;DHT22;2059;48.538;12.146;2023-02-07T05:28:22;-2.10;94.20
4090;DHT22;2059;48.538;12.146;2023-02-07T05:33:24;-2.20;94.30
4090;DHT22;2059;48.538;12.146;2023-02-07T05:38:27;-2.30;94.00
4090;DHT22;2059;48.538;12.146;2023-02-07T05:43:29;-2.60;94.50
4090;DHT22;2059;48.538;12.146;2023-02-07T05:48:30;-3.00;95.10
4090;DHT22;2059;48.538;12.146;2023-02-07T05:53:34;-2.90;95.20
4090;DHT22;2059;48.538;12.146;2023-02-07T05:58:35;-3.00;95.40
4090;DHT22;2059;48.538;12.146;2023-02-07T06:03:37;-3.00;95.30
4090;DHT22;2059;48.538;12.146;2023-02-07T06:08:40;-3.00;95.40
4090;DHT22;2059;48.538;12.146;2023-02-07T06:13:42;-2.90;95.40
4090;DHT22;2059;48.538;12.146;2023-02-07T06:18:44;-2.80;95.30
4090;DHT22;2059;48.538;12.146;2023-02-07T06:23:47;-2.90;95.40
4090;DHT22;2059;48.538;12.146;2023-02-07T06:28:51;-2.90;95.80
4090;DHT22;2059;48.538;12.146;2023-02-07T06:33:52;-2.80;95.40
4090;DHT22;2059;48.538;12.146;2023-02-07T06:38:56;-2.90;95.50
4090;DHT22;2059;48.538;12.146;2023-02-07T06:43:58;-2.80;95.20
4090;DHT22;2059;48.538;12.146;2023-02-07T06:49:00;-2.70;95.30
4090;DHT22;2059;48.538;12.146;2023-02-07T06:54:03;-2.90;95.60
4090;DHT22;2059;48.538;12.146;2023-02-07T06:59:09;-2.80;95.80
4090;DHT22;2059;48.538;12.146;2023-02-07T07:04:11;-2.80;95.60
4090;DHT22;2059;48.538;12.146;2023-02-07T07:09:14;-2.90;95.50
4090;DHT22;2059;48.538;12.146;2023-02-07T07:14:16;-3.00;95.50
4090;DHT22;2059;48.538;12.146;2023-02-07T07:19:18;-2.70;95.80
4090;DHT22;2059;48.538;12.146;2023-02-07T07:24:21;-2.60;95.60
4090;DHT22;2059;48.538;12.146;2023-02-07T07:29:23;-2.40;95.30
4090;DHT22;2059;48.538;12.146;2023-02-07T07:34:25;-2.30;95.00
4090;DHT22;2059;48.538;12.146;2023-02-07T07:39:28;-2.10;94.80
4090;DHT22;2059;48.538;12.146;2023-02-07T07:44:29;-1.90;94.70
4090;DHT22;2059;48.538;12.146;2023-02-07T07:49:31;-1.90;94.70
4090;DHT22;2059;48.538;12.146;2023-02-07T07:54:34;-1.60;94.40
4090;DHT22;2059;48.538;12.146;2023-02-07T07:59:36;-1.40;94.30
4090;DHT22;2059;48.538;12.146;2023-02-07T08:04:38;-1.30;93.60
4090;DHT22;2059;48.538;12.146;2023-02-07T08:09:41;-1.50;93.90
4090;DHT22;2059;48.538;12.146;2023-02-07T08:14:43;-1.30;93.80
4090;DHT22;2059;48.538;12.146;2023-02-07T08:19:45;-1.10;93.70
4090;DHT22;2059;48.538;12.146;2023-02-07T08:24:48;-0.70;93.50
4090;DHT22;2059;48.538;12.146;2023-02-07T08:29:49;-0.50;93.00
4090;DHT22;2059;48.538;12.146;2023-02-07T08:34:51;-0.20;92.40
4090;DHT22;2059;48.538;12.146;2023-02-07T08:39:54;0.00;91.90
4090;DHT22;2059;48.538;12.146;2023-02-07T08:44:57;0.50;91.30
4090;DHT22;2059;48.538;12.146;2023-02-07T08:49:59;0.70;90.50
4090;DHT22;2059;48.538;12.146;2023-02-07T08:55:02;0.50;89.30
4090;DHT22;2059;48.538;12.146;2023-02-07T09:00:06;0.50;90.10
4090;DHT22;2059;48.538;12.146;2023-02-07T09:05:08;0.50;90.40
4090;DHT22;2059;48.538;12.146;2023-02-07T09:10:11;0.60;90.20
4090;DHT22;2059;48.538;12.146;2023-02-07T09:15:13;0.90;90.10
4090;DHT22;2059;48.538;12.146;2023-02-07T09:20:14;1.00;90.00
4090;DHT22;2059;48.538;12.146;2023-02-07T09:25:18;1.00;89.70
4090;DHT22;2059;48.538;12.146;2023-02-07T09:30:19;1.20;88.50
4090;DHT22;2059;48.538;12.146;2023-02-07T09:35:21;1.50;87.20
4090;DHT22;2059;48.538;12.146;2023-02-07T09:40:24;1.70;85.40
4090;DHT22;2059;48.538;12.146;2023-02-07T09:45:29;1.70;85.50
4090;DHT22;2059;48.538;12.146;2023-02-07T09:50:34;1.70;86.10
4090;DHT22;2059;48.538;12.146;2023-02-07T09:55:43;2.10;84.30
4090;DHT22;2059;48.538;12.146;2023-02-07T10:00:55;2.10;82.80
4090;DHT22;2059;48.538;12.146;2023-02-07T10:06:01;2.60;82.10
4090;DHT22;2059;48.538;12.146;2023-02-07T10:11:12;2.40;81.10
4090;DHT22;2059;48.538;12.146;2023-02-07T10:16:40;2.70;80.60
4090;DHT22;2059;48.538;12.146;2023-02-07T10:21:52;3.20;79.00
4090;DHT22;2059;48.538;12.146;2023-02-07T10:27:02;3.00;78.60
4090;DHT22;2059;48.538;12.146;2023-02-07T10:32:13;3.30;77.80
4090;DHT22;2059;48.538;12.146;2023-02-07T10:37:18;3.20;76.40
4090;DHT22;2059;48.538;12.146;2023-02-07T10:42:21;3.50;75.90
4090;DHT22;2059;48.538;12.146;2023-02-07T10:47:24;3.50;74.90
4090;DHT22;2059;48.538;12.146;2023-02-07T10:52:28;3.60;73.50
4090;DHT22;2059;48.538;12.146;2023-02-07T10:57:32;3.60;74.40
4090;DHT22;2059;48.538;12.146;2023-02-07T11:02:48;3.90;74.50
4090;DHT22;2059;48.538;12.146;2023-02-07T11:07:55;3.80;73.10
4090;DHT22;2059;48.538;12.146;2023-02-07T11:12:59;4.30;73.20
4090;DHT22;2059;48.538;12.146;2023-02-07T11:18:02;5.00;71.40
4090;DHT22;2059;48.538;12.146;2023-02-07T11:23:06;5.10;69.30
4090;DHT22;2059;48.538;12.146;2023-02-07T11:28:19;5.00;68.80
4090;DHT22;2059;48.538;12.146;2023-02-07T11:33:25;5.30;69.10
4090;DHT22;2059;48.538;12.146;2023-02-07T11:38:28;5.20;67.70
4090;DHT22;2059;48.538;12.146;2023-02-07T11:43:32;4.90;68.30
4090;DHT22;2059;48.538;12.146;2023-02-07T11:48:36;5.00;67.10
4090;DHT22;2059;48.538;12.146;2023-02-07T11:53:42;4.90;68.70
4090;DHT22;2059;48.538;12.146;2023-02-07T11:58:48;5.10;67.30
4090;DHT22;2059;48.538;12.146;2023-02-07T12:03:53;4.80;65.50
4090;DHT22;2059;48.538;12.146;2023-02-07T12:08:58;4.40;65.60
4090;DHT22;2059;48.538;12.146;2023-02-07T12:14:07;4.90;64.40
4090;DHT22;2059;48.538;12.146;2023-02-07T12:19:13;5.30;65.50
4090;DHT22;2059;48.538;12.146;2023-02-07T12:24:21;5.80;64.30
4090;DHT22;2059;48.538;12.146;2023-02-07T12:29:38;6.30;61.90
4090;DHT22;2059;48.538;12.146;2023-02-07T12:34:47;6.10;62.00
4090;DHT22;2059;48.538;12.146;2023-02-07T12:39:56;5.90;60.30
4090;DHT22;2059;48.538;12.146;2023-02-07T12:45:02;5.70;61.00
4090;DHT22;2059;48.538;12.146;2023-02-07T12:50:17;5.60;58.80
4090;DHT22;2059;48.538;12.146;2023-02-07T12:55:29;5.40;57.50
4090;DHT22;2059;48.538;12.146;2023-02-07T13:00:47;5.30;56.10
4090;DHT22;2059;48.538;12.146;2023-02-07T13:06:06;5.30;56.30
4090;DHT22;2059;48.538;12.146;2023-02-07T13:11:20;6.10;57.30
4090;DHT22;2059;48.538;12.146;2023-02-07T13:16:33;6.00;58.70
4090;DHT22;2059;48.538;12.146;2023-02-07T13:21:42;5.80;58.90
4090;DHT22;2059;48.538;12.146;2023-02-07T13:26:49;5.10;58.70
4090;DHT22;2059;48.538;12.146;2023-02-07T13:31:56;4.60;59.90
4090;DHT22;2059;48.538;12.146;2023-02-07T13:36:59;4.80;61.30
4090;DHT22;2059;48.538;12.146;2023-02-07T13:42:12;4.40;59.80
4090;DHT22;2059;48.538;12.146;2023-02-07T13:47:35;4.10;58.20
4090;DHT22;2059;48.538;12.146;2023-02-07T13:52:44;4.10;57.00
4090;DHT22;2059;48.538;12.146;2023-02-07T13:57:47;3.80;55.90
4090;DHT22;2059;48.538;12.146;2023-02-07T14:03:19;3.80;57.40
4090;DHT22;2059;48.538;12.146;2023-02-07T14:08:22;4.10;56.90
4090;DHT22;2059;48.538;12.146;2023-02-07T14:13:32;4.50;59.60
4090;DHT22;2059;48.538;12.146;2023-02-07T14:18:47;4.60;60.90
4090;DHT22;2059;48.538;12.146;2023-02-07T14:24:02;4.70;60.50
4090;DHT22;2059;48.538;12.146;2023-02-07T14:34:58;4.30;60.10
4090;DHT22;2059;48.538;12.146;2023-02-07T14:40:06;4.10;61.00
4090;DHT22;2059;48.538;12.146;2023-02-07T14:45:17;3.60;60.70
4090;DHT22;2059;48.538;12.146;2023-02-07T14:50:24;3.50;60.70
4090;DHT22;2059;48.538;12.146;2023-02-07T14:55:33;3.20;63.40
4090;DHT22;2059;48.538;12.146;2023-02-07T15:00:39;3.30;63.10
4090;DHT22;2059;48.538;12.146;2023-02-07T15:05:52;3.20;63.10
4090;DHT22;2059;48.538;12.146;2023-02-07T15:10:56;3.40;63.40
4090;DHT22;2059;48.538;12.146;2023-02-07T15:16:00;3.50;62.00
4090;DHT22;2059;48.538;12.146;2023-02-07T15:21:05;3.50;62.80
4090;DHT22;2059;48.538;12.146;2023-02-07T15:26:08;3.30;62.70
4090;DHT22;2059;48.538;12.146;2023-02-07T15:31:12;3.50;63.00
4090;DHT22;2059;48.538;12.146;2023-02-07T15:36:28;3.40;63.60
4090;DHT22;2059;48.538;12.146;2023-02-07T15:41:31;3.10;63.90
4090;DHT22;2059;48.538;12.146;2023-02-07T15:46:44;3.20;64.10
4090;DHT22;2059;48.538;12.146;2023-02-07T15:51:49;3.20;64.30
4090;DHT22;2059;48.538;12.146;2023-02-07T15:56:56;3.00;62.30
4090;DHT22;2059;48.538;12.146;2023-02-07T16:02:00;2.70;63.20
4090;DHT22;2059;48.538;12.146;2023-02-07T16:07:06;2.80;63.90
4090;DHT22;2059;48.538;12.146;2023-02-07T16:12:30;2.90;64.20
4090;DHT22;2059;48.538;12.146;2023-02-07T16:17:38;2.90;64.20
4090;DHT22;2059;48.538;12.146;2023-02-07T16:22:43;2.80;62.20
4090;DHT22;2059;48.538;12.146;2023-02-07T16:27:46;2.70;61.50
4090;DHT22;2059;48.538;12.146;2023-02-07T16:32:49;2.50;62.00
4090;DHT22;2059;48.538;12.146;2023-02-07T16:37:53;2.50;62.40
4090;DHT22;2059;48.538;12.146;2023-02-07T16:42:55;2.30;63.10
4090;DHT22;2059;48.538;12.146;2023-02-07T16:47:58;2.40;64.10
4090;DHT22;2059;48.538;12.146;2023-02-07T16:53:01;2.30;64.80
4090;DHT22;2059;48.538;12.146;2023-02-07T16:58:05;2.30;65.30
4090;DHT22;2059;48.538;12.146;2023-02-07T17:03:13;2.30;64.80
4090;DHT22;2059;48.538;12.146;2023-02-07T17:08:18;1.90;66.00
4090;DHT22;2059;48.538;12.146;2023-02-07T17:13:22;1.90;65.50
4090;DHT22;2059;48.538;12.146;2023-02-07T17:18:24;2.00;64.40
4090;DHT22;2059;48.538;12.146;2023-02-07T17:23:27;1.90;64.30
4090;DHT22;2059;48.538;12.146;2023-02-07T17:28:29;1.70;64.60
4090;DHT22;2059;48.538;12.146;2023-02-07T17:33:32;1.60;65.40
4090;DHT22;2059;48.538;12.146;2023-02-07T17:38:36;1.60;65.00
4090;DHT22;2059;48.538;12.146;2023-02-07T17:43:38;1.50;65.60
4090;DHT22;2059;48.538;12.146;2023-02-07T17:48:40;1.50;66.10
4090;DHT22;2059;48.538;12.146;2023-02-07T17:53:43;1.50;66.30
4090;DHT22;2059;48.538;12.146;2023-02-07T17:58:45;1.40;66.60
4090;DHT22;2059;48.538;12.146;2023-02-07T18:03:48;1.40;67.50
4090;DHT22;2059;48.538;12.146;2023-02-07T18:08:52;1.40;67.60
4090;DHT22;2059;48.538;12.146;2023-02-07T18:13:55;1.40;68.40
4090;DHT22;2059;48.538;12.146;2023-02-07T18:18:57;1.40;68.90
4090;DHT22;2059;48.538;12.146;2023-02-07T18:24:00;1.40;68.80
4090;DHT22;2059;48.538;12.146;2023-02-07T18:29:02;1.50;68.50
4090;DHT22;2059;48.538;12.146;2023-02-07T18:34:04;1.00;69.80
4090;DHT22;2059;48.538;12.146;2023-02-07T18:39:07;0.90;70.80
4090;DHT22;2059;48.538;12.146;2023-02-07T18:44:09;0.90;71.40
4090;DHT22;2059;48.538;12.146;2023-02-07T18:49:13;1.10;71.70
4090;DHT22;2059;48.538;12.146;2023-02-07T18:54:17;0.80;72.20
4090;DHT22;2059;48.538;12.146;2023-02-07T18:59:19;0.80;73.10
4090;DHT22;2059;48.538;12.146;2023-02-07T19:04:21;0.70;73.90
4090;DHT22;2059;48.538;12.146;2023-02-07T19:09:25;0.90;74.30
4090;DHT22;2059;48.538;12.146;2023-02-07T19:14:28;0.70;74.30
4090;DHT22;2059;48.538;12.146;2023-02-07T19:19:31;0.50;75.00
4090;DHT22;2059;48.538;12.146;2023-02-07T19:24:34;0.50;75.30
4090;DHT22;2059;48.538;12.146;2023-02-07T19:29:36;0.50;75.40
4090;DHT22;2059;48.538;12.146;2023-02-07T19:34:38;0.50;75.30
4090;DHT22;2059;48.538;12.146;2023-02-07T19:39:41;0.40;75.80
4090;DHT22;2059;48.538;12.146;2023-02-07T19:44:45;0.40;76.20
4090;DHT22;2059;48.538;12.146;2023-02-07T19:49:47;0.20;77.60
4090;DHT22;2059;48.538;12.146;2023-02-07T19:54:52;0.10;78.20
4090;DHT22;2059;48.538;12.146;2023-02-07T19:59:54;0.10;78.20
4090;DHT22;2059;48.538;12.146;2023-02-07T20:04:56;0.00;78.70
4090;DHT22;2059;48.538;12.146;2023-02-07T20:09:59;0.00;79.40
4090;DHT22;2059;48.538;12.146;2023-02-07T20:15:01;-0.10;79.40
4090;DHT22;2059;48.538;12.146;2023-02-07T20:20:03;-0.10;79.70
4090;DHT22;2059;48.538;12.146;2023-02-07T20:25:07;-0.20;80.00
4090;DHT22;2059;48.538;12.146;2023-02-07T20:30:10;-0.20;80.10
4090;DHT22;2059;48.538;12.146;2023-02-07T20:35:12;-0.20;81.10
4090;DHT22;2059;48.538;12.146;2023-02-07T20:40:15;-0.30;81.50
4090;DHT22;2059;48.538;12.146;2023-02-07T20:45:17;-0.30;81.90
4090;DHT22;2059;48.538;12.146;2023-02-07T20:50:19;-0.50;82.40
4090;DHT22;2059;48.538;12.146;2023-02-07T20:55:22;-0.80;84.20
4090;DHT22;2059;48.538;12.146;2023-02-07T21:00:25;-0.80;85.40
4090;DHT22;2059;48.538;12.146;2023-02-07T21:05:26;-0.70;85.00
4090;DHT22;2059;48.538;12.146;2023-02-07T21:10:29;-0.60;85.10
4090;DHT22;2059;48.538;12.146;2023-02-07T21:15:31;-0.80;85.90
4090;DHT22;2059;48.538;12.146;2023-02-07T21:20:36;-0.80;86.00
4090;DHT22;2059;48.538;12.146;2023-02-07T21:25:39;-0.70;86.30
4090;DHT22;2059;48.538;12.146;2023-02-07T21:30:41;-0.80;87.00
4090;DHT22;2059;48.538;12.146;2023-02-07T21:35:43;-0.80;87.50
4090;DHT22;2059;48.538;12.146;2023-02-07T21:40:46;-1.10;87.70
4090;DHT22;2059;48.538;12.146;2023-02-07T21:45:48;-1.20;88.50
4090;DHT22;2059;48.538;12.146;2023-02-07T21:50:50;-1.10;88.20
4090;DHT22;2059;48.538;12.146;2023-02-07T21:55:53;-1.20;88.30
4090;DHT22;2059;48.538;12.146;2023-02-07T22:01:02;-1.10;88.60
4090;DHT22;2059;48.538;12.146;2023-02-07T22:06:05;-1.20;88.90
4090;DHT22;2059;48.538;12.146;2023-02-07T22:11:10;-1.20;89.30
4090;DHT22;2059;48.538;12.146;2023-02-07T22:16:14;-1.20;89.40
4090;DHT22;2059;48.538;12.146;2023-02-07T22:21:19;-1.30;90.00
4090;DHT22;2059;48.538;12.146;2023-02-07T22:26:23;-1.20;90.20
4090;DHT22;2059;48.538;12.146;2023-02-07T22:31:26;-1.20;90.10
4090;DHT22;2059;48.538;12.146;2023-02-07T22:36:30;-1.40;90.20
4090;DHT22;2059;48.538;12.146;2023-02-07T22:41:34;-1.30;90.30
4090;DHT22;2059;48.538;12.146;2023-02-07T22:46:36;-1.30;90.10
4090;DHT22;2059;48.538;12.146;2023-02-07T22:51:37;-1.20;90.20
4090;DHT22;2059;48.538;12.146;2023-02-07T22:56:41;-1.20;90.20
4090;DHT22;2059;48.538;12.146;2023-02-07T23:01:43;-1.60;90.70
4090;DHT22;2059;48.538;12.146;2023-02-07T23:06:46;-1.50;90.90
4090;DHT22;2059;48.538;12.146;2023-02-07T23:11:49;-1.40;90.60
4090;DHT22;2059;48.538;12.146;2023-02-07T23:16:51;-1.40;90.80
4090;DHT22;2059;48.538;12.146;2023-02-07T23:21:53;-1.60;91.00
4090;DHT22;2059;48.538;12.146;2023-02-07T23:26:56;-1.70;91.20
4090;DHT22;2059;48.538;12.146;2023-02-07T23:31:58;-1.60;91.10
4090;DHT22;2059;48.538;12.146;2023-02-07T23:37:00;-1.70;91.10
4090;DHT22;2059;48.538;12.146;2023-02-07T23:42:03;-1.80;91.30
4090;DHT22;2059;48.538;12.146;2023-02-07T23:47:09;-1.80;91.20
4090;DHT22;2059;48.538;12.146;2023-02-07T23:52:11;-1.80;91.40
4090;DHT22;2059;48.538;12.146;2023-02-07T23:57:14;-1.70;91.30
